createdAt,value
2019-05-25T00:02:22.761Z,17.00
2019-05-25T00:04:53.301Z,17.00
2019-05-25T00:07:23.997Z,16.90
2019-05-25T00:09:54.388Z,16.90
2019-05-25T00:12:24.960Z,16.80
2019-05-25T00:14:55.429Z,16.80
2019-05-25T00:17:26.061Z,16.80
2019-05-25T00:19:56.567Z,16.80
2019-05-25T00:22:27.084Z,16.70
2019-05-25T00:24:57.588Z,16.70
2019-05-25T00:27:28.130Z,16.70
2019-05-25T00:29:58.587Z,16.70
2019-05-25T00:32:29.198Z,16.70
2019-05-25T00:35:00.718Z,16.70
2019-05-25T00:37:32.814Z,16.60
2019-05-25T00:40:03.449Z,16.60
2019-05-25T00:42:34.007Z,16.60
2019-05-25T00:45:05.311Z,16.60
2019-05-25T00:47:35.798Z,16.60
2019-05-25T00:50:06.883Z,16.60
2019-05-25T00:52:37.431Z,16.60
2019-05-25T00:55:08.964Z,16.60
2019-05-25T00:57:39.457Z,16.50
2019-05-25T01:00:10.807Z,16.50
2019-05-25T01:02:41.577Z,16.50
2019-05-25T01:05:12.522Z,16.40
2019-05-25T01:07:43.026Z,16.40
2019-05-25T01:10:14.137Z,16.40
2019-05-25T01:12:44.580Z,16.40
2019-05-25T01:15:16.927Z,16.30
2019-05-25T01:17:47.438Z,16.30
2019-05-25T01:20:18.425Z,16.20
2019-05-25T01:22:48.906Z,16.20
2019-05-25T01:25:19.732Z,16.20
2019-05-25T01:27:50.297Z,16.10
2019-05-25T01:30:21.154Z,16.10
2019-05-25T01:32:51.637Z,16.00
2019-05-25T01:35:22.191Z,16.00
2019-05-25T01:37:52.641Z,15.90
2019-05-25T01:40:23.172Z,15.90
2019-05-25T01:42:53.591Z,15.90
2019-05-25T01:45:24.096Z,15.80
2019-05-25T01:47:54.599Z,15.80
2019-05-25T01:50:25.091Z,15.80
2019-05-25T01:52:55.589Z,15.80
2019-05-25T01:55:26.175Z,15.80
2019-05-25T01:57:56.653Z,15.80
2019-05-25T02:00:28.599Z,15.80
2019-05-25T02:02:58.954Z,15.70
2019-05-25T02:05:29.335Z,15.70
2019-05-25T02:07:59.868Z,15.60
2019-05-25T02:10:30.252Z,15.50
2019-05-25T02:13:00.728Z,15.50
2019-05-25T02:15:31.206Z,15.50
2019-05-25T02:18:01.607Z,15.50
2019-05-25T02:20:32.121Z,15.40
2019-05-25T02:23:02.656Z,15.40
2019-05-25T02:25:33.013Z,15.30
2019-05-25T02:28:03.501Z,15.20
2019-05-25T02:30:33.909Z,15.20
2019-05-25T02:33:04.368Z,15.20
2019-05-25T02:35:34.780Z,15.20
2019-05-25T02:38:05.247Z,15.20
2019-05-25T02:40:35.805Z,15.20
2019-05-25T02:43:06.200Z,15.20
2019-05-25T02:45:36.590Z,15.20
2019-05-25T02:48:07.149Z,15.20
2019-05-25T02:50:37.572Z,15.30
2019-05-25T02:53:08.226Z,15.30
2019-05-25T02:55:38.709Z,15.30
2019-05-25T02:58:10.263Z,15.30
2019-05-25T03:00:40.751Z,15.30
2019-05-25T03:03:11.286Z,15.30
2019-05-25T03:05:42.057Z,15.30
2019-05-25T03:08:12.547Z,15.30
2019-05-25T03:10:43.602Z,15.30
2019-05-25T03:13:14.408Z,15.20
2019-05-25T03:15:44.881Z,15.10
2019-05-25T03:18:15.451Z,15.10
2019-05-25T03:20:45.919Z,15.10
2019-05-25T03:23:35.335Z,15.10
2019-05-25T03:26:05.725Z,15.10
2019-05-25T03:28:36.270Z,15.10
2019-05-25T03:31:06.641Z,15.20
2019-05-25T03:33:37.104Z,15.20
2019-05-25T03:36:07.601Z,15.20
2019-05-25T03:38:38.032Z,15.20
2019-05-25T03:41:08.528Z,15.20
2019-05-25T03:43:39.119Z,15.20
2019-05-25T03:46:09.884Z,15.20
2019-05-25T03:48:40.301Z,15.30
2019-05-25T03:51:10.828Z,15.20
2019-05-25T03:53:41.250Z,15.20
2019-05-25T03:56:11.793Z,15.20
2019-05-25T03:58:42.291Z,15.20
2019-05-25T04:01:12.751Z,15.30
2019-05-25T04:03:43.513Z,15.20
2019-05-25T04:06:13.973Z,15.20
2019-05-25T04:08:44.490Z,15.20
2019-05-25T04:11:14.964Z,15.10
2019-05-25T04:13:45.498Z,15.10
2019-05-25T04:16:15.880Z,15.10
2019-05-25T04:18:46.477Z,15.10
2019-05-25T04:21:16.999Z,15.10
2019-05-25T04:23:47.464Z,15.10
2019-05-25T04:26:22.471Z,15.10
2019-05-25T04:28:49.981Z,15.10
2019-05-25T04:31:20.441Z,15.20
2019-05-25T04:33:50.908Z,15.20
2019-05-25T04:36:21.276Z,15.30
2019-05-25T04:38:51.747Z,15.30
2019-05-25T04:41:22.252Z,15.30
2019-05-25T04:43:52.733Z,15.30
2019-05-25T04:46:23.209Z,15.40
2019-05-25T04:48:53.701Z,15.40
2019-05-25T04:51:24.274Z,15.40
2019-05-25T04:53:54.839Z,15.50
2019-05-25T04:56:39.101Z,15.50
2019-05-25T04:58:57.743Z,15.50
2019-05-25T05:01:28.127Z,15.50
2019-05-25T05:03:59.043Z,15.50
2019-05-25T05:06:29.563Z,15.60
2019-05-25T05:09:00.055Z,15.60
2019-05-25T05:11:30.596Z,15.60
2019-05-25T05:14:01.142Z,15.60
2019-05-25T05:16:31.537Z,15.70
2019-05-25T05:19:02.093Z,15.70
2019-05-25T05:21:32.555Z,15.70
2019-05-25T05:24:03.061Z,15.80
2019-05-25T05:26:34.699Z,15.90
2019-05-25T05:29:05.618Z,16.00
2019-05-25T05:31:36.057Z,16.00
2019-05-25T05:34:06.595Z,16.10
2019-05-25T05:36:37.788Z,16.20
2019-05-25T05:39:09.673Z,16.30
2019-05-25T05:41:40.320Z,16.30
2019-05-25T05:44:13.904Z,16.40
2019-05-25T05:46:47.110Z,16.40
2019-05-25T05:49:18.588Z,16.50
2019-05-25T05:51:50.792Z,16.50
2019-05-25T05:54:21.506Z,16.50
2019-05-25T05:56:51.908Z,16.60
2019-05-25T05:59:22.392Z,16.60
2019-05-25T06:01:52.927Z,16.70
2019-05-25T06:04:23.430Z,16.80
2019-05-25T06:06:54.183Z,16.90
2019-05-25T06:09:24.643Z,17.00
2019-05-25T06:11:55.167Z,17.10
2019-05-25T06:14:25.621Z,17.20
2019-05-25T06:16:56.120Z,17.30
2019-05-25T06:19:26.626Z,17.40
2019-05-25T06:21:57.196Z,17.50
2019-05-25T06:24:27.681Z,17.50
2019-05-25T06:26:58.218Z,17.60
2019-05-25T06:29:28.694Z,17.60
2019-05-25T06:31:59.166Z,17.70
2019-05-25T06:34:29.632Z,17.80
2019-05-25T06:37:00.175Z,17.80
2019-05-25T06:39:30.761Z,17.80
2019-05-25T06:42:02.035Z,17.90
2019-05-25T06:44:32.864Z,18.00
2019-05-25T06:47:03.342Z,18.10
2019-05-25T06:49:33.795Z,18.30
2019-05-25T06:52:04.451Z,18.40
2019-05-25T06:54:34.972Z,18.60
2019-05-25T06:57:05.574Z,18.70
2019-05-25T06:59:37.045Z,18.90
2019-05-25T07:02:07.568Z,19.00
2019-05-25T07:04:38.022Z,19.10
2019-05-25T07:07:08.474Z,19.20
2019-05-25T07:09:39.063Z,19.20
2019-05-25T07:12:09.547Z,19.30
2019-05-25T07:14:40.056Z,19.30
2019-05-25T07:17:10.529Z,19.40
2019-05-25T07:19:41.382Z,19.50
2019-05-25T07:22:11.774Z,19.60
2019-05-25T07:24:42.281Z,19.70
2019-05-25T07:27:12.976Z,19.70
2019-05-25T07:29:43.460Z,19.80
2019-05-25T07:32:13.826Z,20.00
2019-05-25T07:34:44.324Z,20.10
2019-05-25T07:37:14.706Z,20.20
2019-05-25T07:39:45.343Z,20.30
2019-05-25T07:42:15.885Z,20.40
2019-05-25T07:44:46.315Z,20.50
2019-05-25T07:47:16.825Z,20.60
2019-05-25T07:49:47.317Z,20.70
2019-05-25T07:52:18.087Z,20.70
2019-05-25T07:54:48.606Z,20.80
2019-05-25T07:57:19.037Z,20.90
2019-05-25T07:59:49.664Z,20.90
2019-05-25T08:02:20.116Z,21.00
2019-05-25T08:04:50.662Z,21.10
2019-05-25T08:07:21.190Z,21.20
2019-05-25T08:09:51.980Z,21.30
2019-05-25T08:12:22.593Z,21.40
2019-05-25T08:14:53.278Z,21.50
2019-05-25T08:17:23.874Z,21.60
2019-05-25T08:19:54.298Z,21.70
2019-05-25T08:22:24.718Z,21.70
2019-05-25T08:24:55.124Z,21.80
2019-05-25T08:27:25.656Z,21.80
2019-05-25T08:29:56.178Z,21.90
2019-05-25T08:32:26.564Z,22.00
2019-05-25T08:34:57.055Z,22.00
2019-05-25T08:37:27.525Z,22.10
2019-05-25T08:39:58.127Z,22.20
2019-05-25T08:42:28.609Z,22.20
2019-05-25T08:44:58.981Z,22.30
2019-05-25T08:47:29.361Z,22.40
2019-05-25T08:49:59.785Z,22.40
2019-05-25T08:52:30.193Z,22.50
2019-05-25T08:55:00.681Z,22.50
2019-05-25T08:57:31.319Z,22.50
2019-05-25T09:00:01.729Z,22.50
2019-05-25T09:02:32.347Z,22.60
2019-05-25T09:05:02.810Z,22.70
2019-05-25T09:07:33.420Z,22.80
2019-05-25T09:10:04.223Z,22.90
2019-05-25T09:12:34.725Z,22.90
2019-05-25T09:15:06.194Z,22.90
2019-05-25T09:17:36.765Z,23.00
2019-05-25T09:20:07.569Z,23.10
2019-05-25T09:22:39.087Z,23.10
2019-05-25T09:25:10.957Z,23.20
2019-05-25T09:27:41.395Z,23.30
2019-05-25T09:30:11.984Z,23.30
2019-05-25T09:32:42.349Z,23.30
2019-05-25T09:35:12.931Z,23.30
2019-05-25T09:37:43.680Z,23.30
2019-05-25T09:40:14.634Z,23.30
2019-05-25T09:42:45.269Z,23.40
2019-05-25T09:45:15.859Z,23.40
2019-05-25T09:47:46.385Z,23.50
2019-05-25T09:50:35.748Z,23.60
2019-05-25T09:53:06.131Z,23.70
2019-05-25T09:55:36.564Z,23.80
2019-05-25T09:58:07.015Z,23.80
2019-05-25T10:00:40.147Z,24.00
2019-05-25T10:03:09.801Z,24.10
2019-05-25T10:05:40.263Z,24.30
2019-05-25T10:08:10.794Z,24.40
2019-05-25T10:10:41.263Z,24.40
2019-05-25T10:13:11.854Z,24.30
2019-05-25T10:15:42.297Z,24.30
2019-05-25T10:18:12.785Z,24.10
2019-05-25T10:20:44.334Z,24.00
2019-05-25T10:23:14.884Z,24.10
2019-05-25T10:25:45.358Z,24.10
2019-05-25T10:28:15.866Z,24.10
2019-05-25T10:30:46.438Z,24.10
2019-05-25T10:33:16.945Z,24.10
2019-05-25T10:35:47.475Z,24.20
2019-05-25T10:38:17.969Z,24.30
2019-05-25T10:40:48.585Z,24.50
2019-05-25T10:43:18.995Z,24.60
2019-05-25T10:45:49.603Z,24.80
2019-05-25T10:48:20.117Z,24.90
2019-05-25T10:50:50.593Z,25.00
2019-05-25T10:53:21.074Z,25.10
2019-05-25T10:55:51.674Z,25.10
2019-05-25T10:58:22.291Z,25.20
2019-05-25T11:00:52.797Z,25.30
2019-05-25T11:03:23.352Z,25.30
2019-05-25T11:05:53.866Z,25.30
2019-05-25T11:08:24.450Z,25.40
2019-05-25T11:10:55.002Z,25.40
2019-05-25T11:13:25.939Z,25.40
2019-05-25T11:15:56.872Z,25.50
2019-05-25T11:18:27.326Z,25.50
2019-05-25T11:20:57.909Z,25.40
2019-05-25T11:23:28.390Z,25.40
2019-05-25T11:25:58.894Z,25.30
2019-05-25T11:28:29.462Z,25.30
2019-05-25T11:31:01.055Z,25.20
2019-05-25T11:33:31.677Z,25.10
2019-05-25T11:36:02.232Z,25.10
2019-05-25T11:38:32.944Z,25.10
2019-05-25T11:41:03.374Z,25.10
2019-05-25T11:43:33.912Z,25.10
2019-05-25T11:46:04.654Z,25.20
2019-05-25T11:48:36.505Z,25.10
2019-05-25T11:51:07.061Z,25.10
2019-05-25T11:53:38.754Z,25.00
2019-05-25T11:56:09.328Z,25.00
2019-05-25T11:58:47.287Z,25.00
2019-05-25T12:01:11.940Z,25.00
2019-05-25T12:03:42.687Z,25.00
2019-05-25T12:06:13.345Z,25.00
2019-05-25T12:08:44.811Z,24.90
2019-05-25T12:11:15.386Z,24.90
2019-05-25T12:13:46.027Z,24.90
2019-05-25T12:16:16.637Z,24.80
2019-05-25T12:18:47.165Z,24.80
2019-05-25T12:21:17.727Z,24.70
2019-05-25T12:23:48.197Z,24.70
2019-05-25T12:26:18.772Z,24.70
2019-05-25T12:28:49.207Z,24.60
2019-05-25T12:31:19.633Z,24.70
2019-05-25T12:33:52.420Z,24.60
2019-05-25T12:36:22.943Z,24.60
2019-05-25T12:38:53.476Z,24.60
2019-05-25T12:41:23.954Z,24.60
2019-05-25T12:43:54.420Z,24.60
2019-05-25T12:46:24.942Z,24.60
2019-05-25T12:48:55.374Z,24.50
2019-05-25T12:51:25.871Z,24.50
2019-05-25T12:53:56.402Z,24.50
2019-05-25T12:56:26.959Z,24.50
2019-05-25T12:58:57.559Z,24.50
2019-05-25T13:01:28.118Z,24.40
2019-05-25T13:03:58.711Z,24.40
2019-05-25T13:06:29.254Z,24.40
2019-05-25T13:08:59.787Z,24.40
2019-05-25T13:11:30.301Z,24.40
2019-05-25T13:14:13.710Z,24.40
2019-05-25T13:16:32.953Z,24.30
2019-05-25T13:19:03.467Z,24.30
2019-05-25T13:21:33.914Z,24.30
2019-05-25T13:24:04.297Z,24.30
2019-05-25T13:26:34.698Z,24.30
2019-05-25T13:29:05.267Z,24.20
2019-05-25T13:31:35.762Z,24.20
2019-05-25T13:34:06.283Z,24.30
2019-05-25T13:36:36.876Z,24.30
2019-05-25T13:39:08.099Z,24.20
2019-05-25T13:41:38.588Z,24.20
2019-05-25T13:44:09.158Z,24.20
2019-05-25T13:46:39.580Z,24.20
2019-05-25T13:49:10.210Z,24.20
2019-05-25T13:51:40.618Z,24.20
2019-05-25T13:54:11.194Z,24.20
2019-05-25T13:56:41.735Z,24.10
2019-05-25T13:59:12.360Z,24.10
2019-05-25T14:01:42.845Z,24.20
2019-05-25T14:04:13.319Z,24.20
2019-05-25T14:06:43.818Z,24.20
2019-05-25T14:09:15.953Z,24.20
2019-05-25T14:11:46.684Z,24.20
2019-05-25T14:14:17.436Z,24.10
2019-05-25T14:16:47.981Z,24.10
2019-05-25T14:19:18.498Z,24.10
2019-05-25T14:21:48.903Z,24.10
2019-05-25T14:24:19.477Z,24.10
2019-05-25T14:26:49.939Z,24.10
2019-05-25T14:29:21.581Z,24.10
2019-05-25T14:31:52.398Z,24.10
2019-05-25T14:34:36.755Z,24.10
2019-05-25T14:37:07.347Z,24.10
2019-05-25T14:39:37.713Z,24.10
2019-05-25T14:42:08.114Z,24.10
2019-05-25T14:44:39.592Z,24.20
2019-05-25T14:47:10.113Z,24.20
2019-05-25T14:49:40.640Z,24.30
2019-05-25T14:52:11.174Z,24.30
2019-05-25T14:54:41.640Z,24.30
2019-05-25T14:57:12.103Z,24.30
2019-05-25T14:59:42.610Z,24.30
2019-05-25T15:02:13.087Z,24.30
2019-05-25T15:04:43.617Z,24.30
2019-05-25T15:07:14.102Z,24.30
2019-05-25T15:09:44.553Z,24.30
2019-05-25T15:12:15.056Z,24.30
2019-05-25T15:14:45.530Z,24.30
2019-05-25T15:17:16.031Z,24.30
2019-05-25T15:19:46.598Z,24.20
2019-05-25T15:22:17.115Z,24.30
2019-05-25T15:24:47.744Z,24.30
2019-05-25T15:27:18.329Z,24.30
2019-05-25T15:29:48.752Z,24.20
2019-05-25T15:32:20.582Z,24.20
2019-05-25T15:34:51.535Z,24.20
2019-05-25T15:37:22.306Z,24.20
2019-05-25T15:39:52.887Z,24.10
2019-05-25T15:42:23.398Z,24.00
2019-05-25T15:44:53.879Z,24.00
2019-05-25T15:47:24.379Z,24.00
2019-05-25T15:49:54.955Z,23.90
2019-05-25T15:52:25.393Z,24.00
2019-05-25T15:54:55.858Z,23.90
2019-05-25T15:57:26.378Z,23.90
2019-05-25T15:59:56.870Z,23.90
2019-05-25T16:02:36.829Z,23.90
2019-05-25T16:04:59.829Z,23.90
2019-05-25T16:07:32.770Z,24.00
2019-05-25T16:10:03.238Z,24.00
2019-05-25T16:12:33.873Z,23.90
2019-05-25T16:15:04.395Z,23.90
2019-05-25T16:17:34.929Z,23.90
2019-05-25T16:20:06.455Z,23.80
2019-05-25T16:22:36.863Z,23.80
2019-05-25T16:25:07.798Z,23.70
2019-05-25T16:27:38.250Z,23.70
2019-05-25T16:30:08.871Z,23.70
2019-05-25T16:33:10.089Z,23.70
2019-05-25T16:35:11.955Z,23.60
2019-05-25T16:37:42.853Z,23.60
2019-05-25T16:40:13.638Z,23.60
2019-05-25T16:42:44.117Z,23.60
2019-05-25T16:45:17.811Z,23.60
2019-05-25T16:47:48.275Z,23.60
2019-05-25T16:50:20.118Z,23.60
2019-05-25T16:52:50.673Z,23.50
2019-05-25T16:55:21.211Z,23.50
2019-05-25T16:57:51.757Z,23.60
2019-05-25T17:00:31.359Z,23.50
2019-05-25T17:03:01.806Z,23.50
2019-05-25T17:05:32.433Z,23.50
2019-05-25T17:08:02.822Z,23.50
2019-05-25T17:10:33.305Z,23.40
2019-05-25T17:13:03.783Z,23.50
2019-05-25T17:15:34.278Z,23.40
2019-05-25T17:18:05.262Z,23.40
2019-05-25T17:20:35.916Z,23.40
2019-05-25T17:23:06.404Z,23.30
2019-05-25T17:25:36.896Z,23.30
2019-05-25T17:28:07.526Z,23.30
2019-05-25T17:30:43.151Z,23.30
2019-05-25T17:33:14.619Z,23.30
2019-05-25T17:35:45.400Z,23.30
2019-05-25T17:38:15.981Z,23.30
2019-05-25T17:40:46.437Z,23.30
2019-05-25T17:43:16.946Z,23.30
2019-05-25T17:45:47.442Z,23.30
2019-05-25T17:48:18.068Z,23.20
2019-05-25T17:50:48.704Z,23.20
2019-05-25T17:53:19.213Z,23.10
2019-05-25T17:55:49.739Z,23.10
2019-05-25T17:58:20.219Z,23.10
2019-05-25T18:00:51.053Z,23.10
2019-05-25T18:03:21.940Z,23.00
2019-05-25T18:05:52.522Z,22.90
2019-05-25T18:08:23.094Z,22.90
2019-05-25T18:10:54.693Z,22.90
2019-05-25T18:13:28.687Z,22.90
2019-05-25T18:15:57.670Z,22.80
2019-05-25T18:18:28.379Z,22.80
2019-05-25T18:20:58.880Z,22.80
2019-05-25T18:23:29.549Z,22.80
2019-05-25T18:26:01.206Z,22.80
2019-05-25T18:28:31.802Z,22.70
2019-05-25T18:31:02.485Z,22.70
2019-05-25T18:33:33.103Z,22.70
2019-05-25T18:36:03.763Z,22.70
2019-05-25T18:38:34.262Z,22.70
2019-05-25T18:41:04.819Z,22.60
2019-05-25T18:43:35.432Z,22.60
2019-05-25T18:46:06.125Z,22.60
2019-05-25T18:48:36.604Z,22.60
2019-05-25T18:51:07.050Z,22.60
2019-05-25T18:53:37.552Z,22.60
2019-05-25T18:56:07.970Z,22.50
2019-05-25T18:58:38.452Z,22.50
2019-05-25T19:01:08.981Z,22.50
2019-05-25T19:03:39.573Z,22.40
2019-05-25T19:06:10.087Z,22.40
2019-05-25T19:08:40.615Z,22.30
2019-05-25T19:11:11.440Z,22.30
2019-05-25T19:13:41.873Z,22.30
2019-05-25T19:16:12.470Z,22.30
2019-05-25T19:18:43.021Z,22.20
2019-05-25T19:21:13.525Z,22.20
2019-05-25T19:23:43.966Z,22.30
2019-05-25T19:26:14.462Z,22.20
2019-05-25T19:28:45.008Z,22.20
2019-05-25T19:31:15.483Z,22.20
2019-05-25T19:33:45.992Z,22.20
2019-05-25T19:36:16.454Z,22.20
2019-05-25T19:38:46.913Z,22.20
2019-05-25T19:41:17.336Z,22.20
2019-05-25T19:43:48.862Z,22.10
2019-05-25T19:46:19.417Z,22.20
2019-05-25T19:48:50.037Z,22.10
2019-05-25T19:51:20.460Z,22.10
2019-05-25T19:53:51.040Z,22.10
2019-05-25T19:56:21.651Z,22.10
2019-05-25T19:58:52.115Z,22.00
2019-05-25T20:01:37.144Z,22.00
2019-05-25T20:04:07.849Z,22.00
2019-05-25T20:06:38.330Z,21.90
2019-05-25T20:09:08.796Z,21.90
2019-05-25T20:11:39.246Z,21.90
2019-05-25T20:14:09.854Z,21.90
2019-05-25T20:16:40.339Z,21.80
2019-05-25T20:19:10.839Z,21.70
2019-05-25T20:21:41.359Z,21.80
2019-05-25T20:24:12.590Z,21.70
2019-05-25T20:26:43.020Z,21.70
2019-05-25T20:29:13.625Z,21.70
2019-05-25T20:31:44.223Z,21.70
2019-05-25T20:34:14.707Z,21.70
2019-05-25T20:36:45.621Z,21.60
2019-05-25T20:39:16.175Z,21.50
2019-05-25T20:41:46.582Z,21.50
2019-05-25T20:44:17.205Z,21.50
2019-05-25T20:46:47.606Z,21.50
2019-05-25T20:49:18.128Z,21.50
2019-05-25T20:51:48.597Z,21.50
2019-05-25T20:54:19.246Z,21.50
2019-05-25T20:56:49.704Z,21.50
2019-05-25T20:59:20.211Z,21.40
2019-05-25T21:01:50.735Z,21.40
2019-05-25T21:04:21.196Z,21.40
2019-05-25T21:06:51.737Z,21.40
2019-05-25T21:09:22.236Z,21.40
2019-05-25T21:11:55.855Z,21.40
2019-05-25T21:14:25.106Z,21.40
2019-05-25T21:16:55.760Z,21.30
2019-05-25T21:19:26.286Z,21.30
2019-05-25T21:21:56.842Z,21.30
2019-05-25T21:24:27.351Z,21.30
2019-05-25T21:26:57.818Z,21.30
2019-05-25T21:29:28.308Z,21.20
2019-05-25T21:31:58.895Z,21.20
2019-05-25T21:34:29.439Z,21.20
2019-05-25T21:37:00.125Z,21.20
2019-05-25T21:39:30.525Z,21.20
2019-05-25T21:42:01.019Z,21.10
2019-05-25T21:44:31.448Z,21.10
2019-05-25T21:47:02.269Z,21.10
2019-05-25T21:49:32.746Z,21.10
2019-05-25T21:52:03.393Z,21.10
2019-05-25T21:54:33.934Z,21.00
2019-05-25T21:57:04.353Z,21.00
2019-05-25T21:59:34.895Z,21.00
2019-05-25T22:02:05.551Z,21.00
2019-05-25T22:04:36.043Z,21.00
2019-05-25T22:07:06.576Z,21.00
2019-05-25T22:09:37.081Z,21.00
2019-05-25T22:12:07.692Z,21.00
2019-05-25T22:14:38.199Z,20.90
2019-05-25T22:17:08.768Z,20.90
2019-05-25T22:19:39.245Z,20.90
2019-05-25T22:22:09.867Z,20.90
2019-05-25T22:24:40.334Z,20.90
2019-05-25T22:27:10.799Z,20.80
2019-05-25T22:29:41.331Z,20.80
2019-05-25T22:32:11.692Z,20.80
2019-05-25T22:34:42.259Z,20.70
2019-05-25T22:37:12.769Z,20.70
2019-05-25T22:39:43.266Z,20.70
2019-05-25T22:42:13.813Z,20.70
2019-05-25T22:44:44.257Z,20.60
2019-05-25T22:47:14.827Z,20.60
2019-05-25T22:49:45.392Z,20.60
2019-05-25T22:52:18.194Z,20.60
2019-05-25T22:54:48.668Z,20.60
2019-05-25T22:57:19.418Z,20.50
2019-05-25T22:59:49.845Z,20.50
2019-05-25T23:02:20.397Z,20.40
2019-05-25T23:04:51.217Z,20.30
2019-05-25T23:07:21.653Z,20.20
2019-05-25T23:09:52.173Z,20.20
2019-05-25T23:12:22.582Z,20.20
2019-05-25T23:14:53.006Z,20.20
2019-05-25T23:17:23.397Z,20.20
2019-05-25T23:19:53.842Z,20.20
2019-05-25T23:22:24.248Z,20.30
2019-05-25T23:24:54.879Z,20.30
2019-05-25T23:27:25.406Z,20.30
2019-05-25T23:29:55.923Z,20.30
2019-05-25T23:32:26.304Z,20.30
2019-05-25T23:34:56.785Z,20.30
2019-05-25T23:37:27.301Z,20.30
2019-05-25T23:39:57.806Z,20.30
2019-05-25T23:42:28.492Z,20.30
2019-05-25T23:44:58.938Z,20.30
2019-05-25T23:47:29.431Z,20.30
2019-05-25T23:49:59.968Z,20.30
2019-05-25T23:52:30.486Z,20.30
2019-05-25T23:55:04.770Z,20.30
2019-05-25T23:57:33.158Z,20.30
